Time;durP1;ratioP1;P1;durP2;ratioP2;P2;SDS_P1;SDS_P2;PMS_P1;PMS_P2;Temp;Humidity;BMP_temperature;BMP_pressure;BME280_temperature;BME280_humidity;BME280_pressure;Samples;Min_cycle;Max_cycle;Signal;HPM_P1;HPM_P2
2022/08/31 00:06:14;;;;;;;14.55;5.88;;;;;;;21.49;38.03;98959.22;5057654;28;20492;-81
2022/08/31 00:08:40;;;;;;;18.08;6.28;;;;;;;21.55;37.96;98972.84;5057099;28;20122;-78
2022/08/31 00:11:08;;;;;;;18.70;6.43;;;;;;;21.44;38.14;98950.78;5038793;28;20079;-80
2022/08/31 00:13:35;;;;;;;14.90;6.45;;;;;;;21.50;37.80;98961.72;5056789;28;20049;-79
2022/08/31 00:16:02;;;;;;;19.10;6.75;;;;;;;21.46;38.03;98971.31;5057392;28;20480;-80
2022/08/31 00:18:28;;;;;;;18.83;6.35;;;;;;;21.40;37.74;98974.84;5022364;28;20045;-80
2022/08/31 00:20:54;;;;;;;25.67;6.80;;;;;;;21.37;37.93;98988.03;5037473;28;20435;-79
2022/08/31 00:23:20;;;;;;;17.05;6.35;;;;;;;21.33;38.03;98979.41;5055653;28;20041;-80
2022/08/31 00:25:47;;;;;;;14.45;6.20;;;;;;;21.30;38.06;98972.47;5054428;28;20071;-81
2022/08/31 00:28:14;;;;;;;13.18;6.00;;;;;;;21.28;38.42;98958.22;5054958;28;20091;-80
2022/08/31 00:30:42;;;;;;;11.02;6.03;;;;;;;21.25;37.83;98952.34;5037714;28;20045;-79
2022/08/31 00:33:08;;;;;;;16.33;6.38;;;;;;;21.22;38.07;98942.72;5038030;28;20098;-81
2022/08/31 00:35:36;;;;;;;14.57;6.32;;;;;;;21.28;38.03;98957.38;5055657;28;20439;-82
2022/08/31 00:38:04;;;;;;;16.10;6.97;;;;;;;21.31;38.15;98957.81;5038017;28;20036;-85
2022/08/31 00:40:31;;;;;;;22.08;6.32;;;;;;;21.35;37.68;98950.13;5020847;28;20123;-82
2022/08/31 00:42:59;;;;;;;14.15;6.22;;;;;;;21.37;37.58;98953.50;5055031;28;20053;-80
2022/08/31 00:45:25;;;;;;;12.77;5.95;;;;;;;21.38;37.43;98952.47;5054003;28;20045;-82
2022/08/31 00:47:51;;;;;;;18.30;6.00;;;;;;;21.37;37.38;98944.50;5036925;28;20090;-80
2022/08/31 00:50:18;;;;;;;14.50;5.80;;;;;;;21.36;37.65;98949.09;5036934;28;20045;-81
2022/08/31 00:52:52;;;;;;;18.08;5.88;;;;;;;21.34;37.52;98943.03;5055080;28;20041;-83
2022/08/31 00:55:30;;;;;;;14.85;6.20;;;;;;;21.36;37.37;98949.09;5038843;28;20045;-88
2022/08/31 00:58:01;;;;;;;14.88;5.78;;;;;;;21.36;37.65;98943.66;5022050;28;20036;-87
2022/08/31 01:00:27;;;;;;;14.48;6.07;;;;;;;21.21;37.35;98924.75;5055356;28;20103;-89
2022/08/31 01:02:55;;;;;;;18.58;6.20;;;;;;;21.40;37.26;98950.38;5037661;28;20055;-85
2022/08/31 01:05:21;;;;;;;13.57;6.07;;;;;;;21.37;37.39;98939.06;5037022;28;20044;-85
2022/08/31 01:07:49;;;;;;;12.88;6.72;;;;;;;21.35;37.50;98947.41;5053145;28;20083;-84
2022/08/31 01:10:18;;;;;;;18.48;6.78;;;;;;;21.30;37.58;98936.28;5053190;28;20041;-84
2022/08/31 01:12:46;;;;;;;16.45;6.15;;;;;;;21.29;37.54;98937.34;5037067;28;20128;-91
2022/08/31 01:15:14;;;;;;;10.55;6.43;;;;;;;21.35;37.64;98950.13;5020710;28;20048;-91
2022/08/31 01:17:43;;;;;;;25.90;6.30;;;;;;;21.24;37.62;98947.94;5038352;28;20047;-89
2022/08/31 01:20:18;;;;;;;14.77;6.50;;;;;;;21.14;37.74;98947.47;5026957;28;20152;-91
2022/08/31 01:22:50;;;;;;;12.18;5.78;;;;;;;21.18;37.84;98956.94;5068292;28;20040;-89
2022/08/31 01:25:19;;;;;;;12.45;6.28;;;;;;;21.19;37.98;98954.00;5076590;28;20053;-92
2022/08/31 01:27:46;;;;;;;15.40;7.00;;;;;;;21.19;38.10;98947.72;5056516;28;20518;-89
2022/08/31 01:30:21;;;;;;;16.58;6.03;;;;;;;21.12;38.30;98947.69;5019587;28;20412;-83
2022/08/31 01:32:47;;;;;;;19.38;6.93;;;;;;;21.06;38.12;98943.03;5052520;28;20052;-79
2022/08/31 01:35:13;;;;;;;14.10;6.50;;;;;;;21.11;38.34;98948.72;5053877;28;20036;-79
2022/08/31 01:37:39;;;;;;;14.02;6.45;;;;;;;21.09;38.10;98945.34;5052599;28;20136;-80
2022/08/31 01:40:06;;;;;;;14.40;6.60;;;;;;;21.12;38.00;98941.41;5019361;28;20132;-80
2022/08/31 01:42:32;;;;;;;23.83;6.65;;;;;;;21.05;38.19;98931.34;5052358;28;20053;-80
2022/08/31 01:44:58;;;;;;;15.52;6.35;;;;;;;21.18;37.95;98946.06;5035538;28;20037;-80
2022/08/31 01:47:24;;;;;;;11.52;6.57;;;;;;;21.20;37.71;98946.69;5035565;28;20131;-80
2022/08/31 01:49:50;;;;;;;18.48;6.55;;;;;;;21.22;37.73;98942.72;5035631;28;20041;-80
2022/08/31 01:52:16;;;;;;;10.63;5.60;;;;;;;21.27;37.57;98936.69;5052304;28;20099;-80
2022/08/31 01:54:42;;;;;;;17.88;6.95;;;;;;;21.32;37.62;98931.47;5052528;28;20435;-80
2022/08/31 01:57:09;;;;;;;17.38;6.47;;;;;;;21.33;37.82;98930.47;5018826;28;20057;-79
2022/08/31 02:00:00;;;;;;;14.32;6.90;;;;;;;21.34;38.09;98934.88;5050449;28;20542;-78
2022/08/31 02:02:41;;;;;;;20.13;7.30;;;;;;;21.29;38.31;98934.63;5021002;28;20079;-84
2022/08/31 02:05:07;;;;;;;16.02;7.93;;;;;;;21.28;38.65;98933.75;5035463;28;20049;-83
2022/08/31 02:07:33;;;;;;;13.32;7.63;;;;;;;21.27;38.54;98926.66;5052056;28;20099;-82
2022/08/31 02:10:00;;;;;;;14.60;8.00;;;;;;;21.33;38.85;98925.03;5035565;28;20107;-84
2022/08/31 02:12:28;;;;;;;23.00;8.38;;;;;;;21.36;38.79;98921.91;5035936;28;20102;-82
2022/08/31 02:14:54;;;;;;;26.17;8.18;;;;;;;21.34;39.08;98921.28;5035996;28;20036;-86
2022/08/31 02:17:20;;;;;;;24.20;8.23;;;;;;;21.30;39.36;98934.41;5018959;28;20061;-77
2022/08/31 02:19:46;;;;;;;21.00;7.68;;;;;;;21.29;39.40;98921.84;5035305;28;20049;-82
2022/08/31 02:22:13;;;;;;;23.10;8.18;;;;;;;21.26;39.64;98916.81;5035079;28;20496;-77
2022/08/31 02:24:41;;;;;;;12.45;8.23;;;;;;;21.38;39.49;98930.72;5035730;28;20412;-78
2022/08/31 02:27:08;;;;;;;23.38;8.25;;;;;;;21.36;39.44;98915.63;5035360;28;20049;-77
2022/08/31 02:29:34;;;;;;;23.55;8.50;;;;;;;21.46;39.57;98921.53;5035197;28;20048;-77
2022/08/31 02:32:01;;;;;;;34.10;9.00;;;;;;;21.51;39.61;98922.63;5051521;28;20411;-78
2022/08/31 02:34:28;;;;;;;19.35;8.48;;;;;;;21.58;39.28;98915.28;5051230;28;20051;-76
2022/08/31 02:36:55;;;;;;;27.00;8.18;;;;;;;21.69;38.87;98922.03;5034670;28;20060;-76
2022/08/31 02:39:21;;;;;;;17.90;8.20;;;;;;;21.74;38.96;98918.69;5034501;28;20527;-76
2022/08/31 02:41:47;;;;;;;15.35;7.90;;;;;;;21.82;38.73;98913.09;5018221;28;20500;-75
2022/08/31 02:44:13;;;;;;;20.17;7.15;;;;;;;21.94;38.49;98919.59;5034741;28;20041;-76
2022/08/31 02:46:39;;;;;;;23.73;8.15;;;;;;;22.01;38.22;98915.00;5051324;28;20041;-77
2022/08/31 02:49:35;;;;;;;24.67;7.25;;;;;;;22.07;38.30;98910.59;5034307;28;20045;-77
2022/08/31 02:52:01;;;;;;;26.52;7.80;;;;;;;21.98;38.09;98904.53;5051271;28;20114;-77
2022/08/31 02:54:27;;;;;;;21.00;6.93;;;;;;;22.06;38.00;98900.75;5034352;28;20139;-76
2022/08/31 02:56:53;;;;;;;21.83;7.55;;;;;;;22.19;37.93;98917.16;5051942;28;20052;-77
2022/08/31 02:59:19;;;;;;;23.90;8.07;;;;;;;22.28;37.87;98915.06;5034509;28;20124;-78
2022/08/31 03:01:46;;;;;;;16.13;7.53;;;;;;;22.35;37.59;98910.47;5034562;28;20179;-77
2022/08/31 03:04:15;;;;;;;27.75;7.25;;;;;;;22.44;37.88;98916.53;5035248;28;20139;-78
2022/08/31 03:06:41;;;;;;;23.27;7.53;;;;;;;22.52;37.53;98910.84;5018393;28;20037;-77
2022/08/31 03:09:07;;;;;;;19.27;7.75;;;;;;;22.48;37.41;98913.16;5050819;28;20048;-84
2022/08/31 03:11:33;;;;;;;25.05;8.07;;;;;;;22.35;37.64;98910.47;5017013;28;20045;-78
2022/08/31 03:13:59;;;;;;;29.25;7.82;;;;;;;22.34;37.79;98908.78;5044940;28;20052;-76
2022/08/31 03:16:25;;;;;;;24.38;7.95;;;;;;;22.32;37.77;98907.31;5034297;28;20047;-75
2022/08/31 03:18:52;;;;;;;24.98;8.48;;;;;;;22.38;37.50;98912.78;5034043;28;20060;-78
2022/08/31 03:21:18;;;;;;;29.13;8.98;;;;;;;22.34;37.96;98907.91;5034508;28;20065;-76
2022/08/31 03:23:44;;;;;;;26.20;8.32;;;;;;;22.34;37.91;98908.78;5034484;28;20041;-81
2022/08/31 03:26:11;;;;;;;28.17;8.52;;;;;;;22.35;37.78;98915.91;5014973;28;20083;-87
2022/08/31 03:28:37;;;;;;;38.67;9.63;;;;;;;22.35;37.70;98894.13;5014877;28;20080;-77
2022/08/31 03:31:23;;;;;;;21.90;8.52;;;;;;;22.40;37.77;98899.75;5031134;28;20065;-77
2022/08/31 03:33:50;;;;;;;30.00;9.43;;;;;;;22.44;37.75;98914.63;5014785;28;20052;-85
2022/08/31 03:36:16;;;;;;;21.58;8.80;;;;;;;22.48;37.66;98896.00;5030768;28;20148;-81
2022/08/31 03:38:42;;;;;;;21.58;8.85;;;;;;;22.75;37.67;98905.84;5031015;28;20068;-79
2022/08/31 03:41:09;;;;;;;22.60;8.18;;;;;;;23.08;37.34;98912.28;5014637;28;20497;-82
2022/08/31 03:43:36;;;;;;;26.20;9.30;;;;;;;23.16;36.92;98896.50;5014244;28;20200;-80
2022/08/31 03:46:03;;;;;;;24.95;8.73;;;;;;;23.30;36.97;98891.84;5015040;28;20497;-78
2022/08/31 03:48:29;;;;;;;25.10;8.80;;;;;;;23.61;36.67;98903.88;5034647;28;20091;-79
2022/08/31 03:50:56;;;;;;;26.20;8.18;;;;;;;23.81;36.27;98899.19;5018067;28;20567;-80
2022/08/31 03:53:26;;;;;;;21.75;8.05;;;;;;;23.89;36.26;98912.59;5018553;28;20071;-78
2022/08/31 03:56:00;;;;;;;37.17;9.73;;;;;;;23.86;36.05;98901.25;5017478;28;20053;-78
2022/08/31 03:58:28;;;;;;;24.23;8.98;;;;;;;23.95;35.83;98906.22;5034864;28;20400;-78
2022/08/31 04:00:55;;;;;;;20.38;8.93;;;;;;;24.06;35.94;98906.59;5034244;28;20132;-77
2022/08/31 04:03:40;;;;;;;25.05;8.43;;;;;;;24.17;35.86;98903.97;5034020;28;20145;-78
2022/08/31 04:06:43;;;;;;;30.95;8.50;;;;;;;24.45;35.51;98906.34;5039038;28;20049;-78
2022/08/31 04:09:27;;;;;;;19.35;8.15;;;;;;;24.58;35.02;98910.00;5034025;28;20132;-78
2022/08/31 04:12:13;;;;;;;30.58;9.20;;;;;;;24.55;35.16;98894.88;5018079;28;20041;-77
2022/08/31 04:15:07;;;;;;;26.60;8.88;;;;;;;24.63;35.06;98896.47;5015827;28;20527;-79
2022/08/31 04:17:48;;;;;;;33.53;8.85;;;;;;;24.50;35.31;98891.16;5032368;28;20064;-78
2022/08/31 04:20:34;;;;;;;17.65;8.30;;;;;;;24.71;35.07;98893.47;5032237;28;20041;-79
2022/08/31 04:23:01;;;;;;;26.60;8.98;;;;;;;24.90;35.25;98913.50;4999138;28;20038;-79
2022/08/31 04:25:31;;;;;;;38.47;8.95;;;;;;;24.91;35.17;98916.00;5017072;28;20057;-79
2022/08/31 04:27:57;;;;;;;27.48;8.95;;;;;;;24.97;35.31;98908.75;5035487;28;20049;-79
2022/08/31 04:30:23;;;;;;;20.55;8.35;;;;;;;24.87;35.02;98912.03;5017308;28;20038;-83
2022/08/31 04:32:51;;;;;;;22.00;7.60;;;;;;;24.83;35.03;98915.44;5017308;28;20442;-82
2022/08/31 04:35:17;;;;;;;38.40;14.45;;;;;;;24.78;34.62;98910.63;5016907;28;20050;-82
2022/08/31 04:37:43;;;;;;;35.00;7.90;;;;;;;24.77;33.89;98908.97;5016627;28;20045;-82
2022/08/31 04:40:16;;;;;;;29.13;7.82;;;;;;;24.82;33.21;98894.63;5033214;28;20432;-83
2022/08/31 04:42:43;;;;;;;27.75;7.25;;;;;;;25.12;32.70;98901.06;5017130;28;20452;-79
2022/08/31 04:45:11;;;;;;;26.75;7.40;;;;;;;25.26;31.05;98890.81;5016928;28;20042;-79
2022/08/31 04:47:37;;;;;;;27.83;7.45;;;;;;;25.26;30.69;98887.22;5017049;28;20080;-79
2022/08/31 04:50:06;;;;;;;33.85;6.78;;;;;;;25.38;30.45;98885.38;5034739;28;20052;-84
2022/08/31 04:52:32;;;;;;;25.52;6.05;;;;;;;25.50;30.14;98886.31;5033262;28;20087;-83
2022/08/31 04:54:58;;;;;;;24.38;6.07;;;;;;;25.68;30.11;98899.09;5032862;28;20108;-86
2022/08/31 04:57:26;;;;;;;23.83;6.38;;;;;;;25.79;30.14;98914.78;5034286;28;20546;-87
2022/08/31 04:59:52;;;;;;;20.52;6.30;;;;;;;26.01;29.81;98917.00;5016870;28;20052;-83
2022/08/31 05:02:56;;;;;;;18.83;6.82;;;;;;;26.26;29.50;98925.06;5034547;28;20053;-83
2022/08/31 05:05:21;;;;;;;23.17;5.50;;;;;;;26.49;29.28;98921.56;5033349;28;20037;-83
2022/08/31 05:07:48;;;;;;;22.70;6.90;;;;;;;26.82;28.78;98927.31;5034352;28;20049;-79
2022/08/31 05:10:14;;;;;;;20.45;6.15;;;;;;;27.19;28.33;98929.81;5033155;28;20057;-79
2022/08/31 05:12:43;;;;;;;30.67;6.03;;;;;;;27.47;27.86;98925.47;5033954;28;20473;-78
2022/08/31 05:15:10;;;;;;;27.33;5.38;;;;;;;27.66;27.37;98918.72;5032629;28;20049;-80
2022/08/31 05:17:36;;;;;;;27.95;5.70;;;;;;;27.72;26.84;98923.25;4999853;28;20045;-79
2022/08/31 05:20:04;;;;;;;38.72;6.45;;;;;;;27.75;26.87;98924.69;5032547;28;20037;-81
2022/08/31 05:22:31;;;;;;;21.40;5.60;;;;;;;27.62;26.78;98924.94;5033098;28;20049;-82
2022/08/31 05:24:58;;;;;;;25.67;6.40;;;;;;;27.65;26.73;98930.78;5016144;28;20042;-81
2022/08/31 05:27:24;;;;;;;22.23;6.38;;;;;;;27.70;26.81;98933.63;5016207;28;20055;-80
2022/08/31 05:29:50;;;;;;;28.60;6.78;;;;;;;27.79;26.68;98923.94;5033407;28;20566;-81
2022/08/31 05:32:34;;;;;;;17.15;5.65;;;;;;;27.82;26.75;98937.19;5046757;28;20049;-81
2022/08/31 05:35:02;;;;;;;19.55;5.78;;;;;;;27.71;26.70;98938.03;5032575;28;20045;-81
2022/08/31 05:37:29;;;;;;;25.07;5.97;;;;;;;27.88;26.96;98934.56;5016350;28;20132;-79
2022/08/31 05:39:56;;;;;;;15.18;5.35;;;;;;;28.01;26.62;98929.59;5032373;28;20052;-79
2022/08/31 05:42:23;;;;;;;24.63;5.50;;;;;;;28.21;26.64;98940.13;5015985;28;20045;-78
2022/08/31 05:44:49;;;;;;;19.70;5.30;;;;;;;28.40;26.62;98931.66;5032290;28;20111;-78
2022/08/31 05:47:16;;;;;;;22.65;5.43;;;;;;;28.48;26.25;98939.53;5015617;28;20053;-78
2022/08/31 05:49:42;;;;;;;27.65;6.82;;;;;;;28.38;26.41;98928.34;5015828;28;20052;-78
2022/08/31 05:52:12;;;;;;;22.75;5.43;;;;;;;28.36;26.59;98941.47;5032105;28;20492;-77
2022/08/31 05:54:39;;;;;;;20.90;6.68;;;;;;;28.51;26.49;98925.25;5015516;28;20049;-80
2022/08/31 05:57:06;;;;;;;18.80;5.88;;;;;;;28.64;26.35;98930.44;5031979;28;20053;-78
2022/08/31 05:59:33;;;;;;;21.05;5.68;;;;;;;28.90;26.51;98936.34;5015878;28;20417;-79
2022/08/31 06:02:00;;;;;;;19.52;5.80;;;;;;;28.95;26.12;98933.66;5031930;28;20049;-78
2022/08/31 06:04:31;;;;;;;24.15;5.60;;;;;;;28.98;26.17;98927.69;5048287;28;20052;-78
2022/08/31 06:06:57;;;;;;;26.48;5.47;;;;;;;29.06;26.17;98926.44;5032966;28;20052;-79
2022/08/31 06:09:26;;;;;;;16.48;5.97;;;;;;;29.20;26.33;98936.00;5015383;28;20095;-77
2022/08/31 06:11:53;;;;;;;19.85;5.72;;;;;;;29.36;25.98;98942.53;5031810;28;20045;-78
2022/08/31 06:14:21;;;;;;;24.17;5.93;;;;;;;29.35;25.68;98940.88;5015411;28;20409;-79
2022/08/31 06:16:47;;;;;;;19.27;5.68;;;;;;;29.36;25.80;98935.09;5031605;28;20491;-79
2022/08/31 06:19:16;;;;;;;29.30;6.55;;;;;;;29.33;25.93;98929.28;5015729;28;20397;-79
2022/08/31 06:21:48;;;;;;;31.60;6.32;;;;;;;29.32;25.98;98935.88;5015457;28;20044;-79
2022/08/31 06:24:14;;;;;;;16.60;5.53;;;;;;;29.37;26.00;98946.94;5015142;28;20056;-79
2022/08/31 06:26:40;;;;;;;25.98;6.63;;;;;;;29.37;25.86;98935.94;4999368;28;20037;-78
2022/08/31 06:29:17;;;;;;;29.92;6.05;;;;;;;29.19;26.22;98940.66;5031701;28;20048;-79
2022/08/31 06:31:45;;;;;;;21.13;5.85;;;;;;;29.34;26.32;98942.78;5015138;28;20045;-79
2022/08/31 06:34:15;;;;;;;21.35;5.47;;;;;;;29.63;25.47;98937.94;5031558;28;20428;-80
2022/08/31 06:37:00;;;;;;;33.72;6.53;;;;;;;29.72;25.73;98936.41;5017481;28;20042;-80
2022/08/31 06:39:46;;;;;;;23.15;6.47;;;;;;;29.92;25.30;98926.72;5031004;28;20049;-80
2022/08/31 06:42:30;;;;;;;15.05;5.72;;;;;;;30.11;25.10;98930.78;5032685;28;20049;-81
2022/08/31 06:45:17;;;;;;;19.98;5.80;;;;;;;30.14;25.02;98923.91;5020820;28;20049;-80
2022/08/31 06:47:53;;;;;;;37.42;6.00;;;;;;;30.43;24.98;98921.75;5031292;28;20045;-81
2022/08/31 06:50:19;;;;;;;25.40;5.72;;;;;;;30.58;24.78;98923.78;5031221;28;20053;-81
2022/08/31 06:52:47;;;;;;;;;;;;;;;30.58;24.31;98929.28;5031552;28;20042;-81
2022/08/31 06:55:22;;;;;;;34.58;6.72;;;;;;;30.90;24.38;98923.78;5015871;28;19917;-79
2022/08/31 06:58:06;;;;;;;28.92;6.55;;;;;;;30.84;24.09;98922.94;5031804;28;20052;-81
2022/08/31 07:00:52;;;;;;;18.38;6.40;;;;;;;30.81;23.96;98919.88;5031388;28;20069;-81
2022/08/31 07:03:44;;;;;;;20.10;5.38;;;;;;;30.57;23.91;98922.94;5028621;28;20063;-81
2022/08/31 07:06:15;;;;;;;17.77;5.00;;;;;;;30.53;23.68;98908.00;5014958;28;20046;-79
2022/08/31 07:08:44;;;;;;;23.98;5.20;;;;;;;30.69;23.87;98920.84;5031284;28;20041;-79
2022/08/31 07:11:10;;;;;;;;;;;;;;;30.75;23.81;98923.66;5031491;28;20050;-79
2022/08/31 07:13:37;;;;;;;14.40;4.57;;;;;;;30.65;23.70;98925.22;5030959;28;20440;-78
2022/08/31 07:16:08;;;;;;;55.50;6.95;;;;;;;30.59;23.78;98926.28;5014412;28;20041;-79
2022/08/31 07:18:36;;;;;;;26.48;5.05;;;;;;;30.48;23.70;98925.34;5031438;28;20512;-80
2022/08/31 07:21:25;;;;;;;18.77;5.22;;;;;;;30.35;23.89;98930.47;5017049;28;20108;-81
2022/08/31 07:23:52;;;;;;;26.30;5.20;;;;;;;30.21;24.33;98925.41;5034732;28;20550;-81
2022/08/31 07:26:28;;;;;;;21.90;4.82;;;;;;;30.16;24.49;98933.59;5018394;28;20046;-83
2022/08/31 07:28:55;;;;;;;25.35;5.45;;;;;;;29.96;24.55;98923.19;5018589;28;20052;-80
2022/08/31 07:31:26;;;;;;;33.70;5.80;;;;;;;29.91;24.42;98936.09;5020380;28;20045;-80
2022/08/31 07:33:55;;;;;;;19.88;5.07;;;;;;;29.80;24.27;98923.28;5020489;28;20136;-82
2022/08/31 07:36:24;;;;;;;24.65;5.30;;;;;;;30.15;23.95;98931.91;5037799;28;20041;-82
2022/08/31 07:44:26;;;;;;;;;;;;;;;30.47;23.23;98928.41;5035966;28;20072;-82
2022/08/31 07:46:54;;;;;;;25.15;5.18;;;;;;;30.47;23.41;98931.97;5018187;28;19968;-78
2022/08/31 07:49:22;;;;;;;26.80;5.28;;;;;;;30.37;23.09;98923.59;5034621;28;20045;-77
2022/08/31 07:52:31;;;;;;;19.67;5.30;;;;;;;30.29;23.54;98910.31;5033143;28;20056;-76
2022/08/31 07:55:10;;;;;;;27.33;5.50;;;;;;;30.56;23.60;98921.28;5001131;28;20053;-75
2022/08/31 07:58:01;;;;;;;24.95;5.30;;;;;;;30.66;23.46;98915.84;5033737;28;20148;-75
2022/08/31 08:00:34;;;;;;;55.50;22.95;;;;;;;30.89;22.90;98911.09;5034196;28;20041;-75
2022/08/31 08:03:05;;;;;;;41.13;6.43;;;;;;;31.17;22.58;98932.78;5034119;28;20095;-76
2022/08/31 08:05:40;;;;;;;30.83;5.40;;;;;;;31.14;22.84;98911.25;5018116;28;20388;-75
2022/08/31 08:08:25;;;;;;;21.05;4.93;;;;;;;31.39;22.61;98902.25;5032912;28;20053;-75
2022/08/31 08:11:20;;;;;;;20.67;4.53;;;;;;;31.80;21.60;98901.59;5017176;28;20057;-75
2022/08/31 08:14:04;;;;;;;28.77;4.65;;;;;;;31.92;21.96;98893.91;5033347;28;20071;-76
2022/08/31 08:16:51;;;;;;;17.77;4.60;;;;;;;31.95;21.63;98898.06;4986840;28;20060;-75
2022/08/31 08:19:33;;;;;;;24.70;5.43;;;;;;;31.75;21.85;98893.28;5016740;28;20065;-76
2022/08/31 08:22:01;;;;;;;22.42;4.70;;;;;;;31.82;21.91;98893.84;5033072;28;20081;-76
2022/08/31 08:24:34;;;;;;;19.88;4.90;;;;;;;31.69;21.89;98884.97;5016822;28;20136;-76
2022/08/31 08:27:19;;;;;;;18.38;4.50;;;;;;;31.68;21.89;98894.38;5033062;28;20072;-76
2022/08/31 08:29:54;;;;;;;24.63;4.57;;;;;;;31.79;21.65;98880.59;4999739;28;20048;-75
2022/08/31 08:32:24;;;;;;;18.42;4.57;;;;;;;31.89;21.66;98884.22;4999542;28;20042;-76
2022/08/31 08:34:51;;;;;;;25.33;5.45;;;;;;;32.10;21.60;98881.50;5032585;28;20144;-75
2022/08/31 08:37:17;;;;;;;23.30;5.00;;;;;;;32.19;21.31;98876.25;4999777;28;20053;-76
2022/08/31 08:39:44;;;;;;;22.15;4.82;;;;;;;32.34;21.38;98873.47;5012200;28;20385;-75
2022/08/31 08:42:14;;;;;;;21.23;5.43;;;;;;;32.53;21.00;98871.84;5033700;28;20069;-77
2022/08/31 08:44:42;;;;;;;23.23;5.32;;;;;;;32.75;21.30;98867.94;5033268;28;20496;-75
2022/08/31 08:47:21;;;;;;;25.33;4.97;;;;;;;33.01;21.04;98877.06;5033317;28;20045;-75
2022/08/31 08:50:00;;;;;;;19.77;4.43;;;;;;;33.28;21.09;98871.16;5033377;28;20084;-76
2022/08/31 08:52:33;;;;;;;16.13;4.03;;;;;;;33.59;20.67;98869.94;5016682;28;20068;-75
2022/08/31 08:55:05;;;;;;;19.08;4.20;;;;;;;33.82;20.50;98853.72;5016994;28;20412;-76
2022/08/31 08:57:39;;;;;;;24.77;4.60;;;;;;;34.14;19.84;98869.06;5033174;28;20045;-75
2022/08/31 09:00:25;;;;;;;21.77;4.30;;;;;;;34.36;20.00;98858.34;5016406;28;20045;-76
2022/08/31 09:03:05;;;;;;;23.70;4.10;;;;;;;35.08;19.74;98860.47;5033117;28;20068;-76
2022/08/31 09:06:08;;;;;;;22.08;3.85;;;;;;;35.02;19.48;98854.97;5018984;28;20041;-75
2022/08/31 09:09:16;;;;;;;21.50;4.70;;;;;;;35.45;19.05;98845.81;5017246;28;20631;-76
2022/08/31 09:11:59;;;;;;;22.95;3.60;;;;;;;35.46;19.34;98862.19;5032998;28;20045;-75
2022/08/31 09:14:47;;;;;;;12.65;3.63;;;;;;;35.26;19.62;98849.41;5033044;28;20049;-76
2022/08/31 09:17:15;;;;;;;13.60;3.67;;;;;;;35.37;19.05;98849.28;5000606;28;20465;-76
2022/08/31 09:19:58;;;;;;;21.70;4.03;;;;;;;35.84;19.24;98842.78;5032839;28;20077;-76
2022/08/31 09:22:24;;;;;;;30.95;4.38;;;;;;;35.80;18.85;98847.28;5034029;28;20128;-76
2022/08/31 09:24:54;;;;;;;29.55;4.07;;;;;;;35.87;18.65;98852.50;5016326;28;20065;-76
2022/08/31 09:27:56;;;;;;;53.58;10.30;;;;;;;36.07;18.50;98840.25;5047224;28;20124;-76
2022/08/31 09:30:43;;;;;;;17.60;3.75;;;;;;;36.37;18.26;98845.31;5032776;28;20065;-77
2022/08/31 09:33:28;;;;;;;20.27;4.05;;;;;;;36.81;17.80;98843.97;5033670;28;20047;-76
2022/08/31 09:36:17;;;;;;;18.63;3.88;;;;;;;37.02;17.06;98843.63;5033498;28;20050;-76
2022/08/31 09:38:45;;;;;;;27.60;3.92;;;;;;;37.19;17.08;98832.69;5015999;28;20508;-76
2022/08/31 09:41:31;;;;;;;15.40;4.15;;;;;;;37.38;16.83;98836.16;5049019;28;20037;-75
2022/08/31 09:44:31;;;;;;;16.17;3.80;;;;;;;37.34;17.05;98828.75;5014888;28;20049;-75
2022/08/31 09:47:04;;;;;;;28.90;4.63;;;;;;;37.36;17.15;98820.91;5032247;28;20042;-74
2022/08/31 09:49:37;;;;;;;13.70;3.67;;;;;;;37.05;16.96;98821.56;5015531;28;20527;-74
2022/08/31 09:55:27;;;;;;;14.07;4.25;;;;;;;37.12;17.37;98818.31;5030740;28;20037;-76
2022/08/31 09:57:54;;;;;;;19.20;3.90;;;;;;;37.10;17.76;98835.38;5031811;28;20057;-75
2022/08/31 10:00:31;;;;;;;26.75;3.67;;;;;;;37.01;17.87;98819.66;5015301;28;20056;-75
2022/08/31 10:03:24;;;;;;;16.77;3.65;;;;;;;37.68;17.16;98825.50;5015711;28;20525;-74
2022/08/31 10:05:53;;;;;;;14.68;4.13;;;;;;;37.75;17.25;98814.72;4998807;28;20045;-76
2022/08/31 10:08:47;;;;;;;20.23;3.55;;;;;;;38.21;17.02;98808.06;5031817;28;20045;-75
2022/08/31 10:11:19;;;;;;;12.82;3.25;;;;;;;38.42;16.61;98796.41;5032050;28;20045;-76
2022/08/31 10:13:53;;;;;;;18.23;4.13;;;;;;;38.70;16.70;98803.44;5032414;28;20091;-75
2022/08/31 10:16:25;;;;;;;22.52;3.90;;;;;;;39.15;16.10;98792.13;5033162;28;20401;-76
2022/08/31 10:19:04;;;;;;;17.35;3.80;;;;;;;39.57;16.05;98812.16;5015294;28;20493;-75
2022/08/31 10:21:43;;;;;;;20.73;3.58;;;;;;;39.32;15.93;98797.78;5015360;28;20096;-76
2022/08/31 10:24:47;;;;;;;22.48;3.80;;;;;;;38.76;16.40;98793.78;5031835;28;20136;-76
2022/08/31 10:27:37;;;;;;;21.25;4.13;;;;;;;38.50;16.77;98798.41;5011735;28;20195;-75
2022/08/31 10:30:03;;;;;;;44.88;4.70;;;;;;;37.45;17.50;98798.72;5031514;28;20049;-75
2022/08/31 10:33:05;;;;;;;39.00;5.10;;;;;;;36.54;18.11;98836.41;5015386;28;20045;-74
2022/08/31 10:36:08;;;;;;;44.72;4.72;;;;;;;36.37;18.83;98806.34;5030520;28;20069;-75
2022/08/31 10:38:43;;;;;;;59.03;5.70;;;;;;;36.48;18.48;98784.72;5031134;28;20049;-75
2022/08/31 10:41:16;;;;;;;42.67;4.90;;;;;;;36.02;18.88;98805.00;5031404;28;20496;-75
2022/08/31 10:43:57;;;;;;;88.60;6.97;;;;;;;36.07;18.92;98790.16;5014714;28;20033;-76
2022/08/31 10:46:23;;;;;;;37.35;4.13;;;;;;;36.35;18.80;98791.91;5031039;28;20447;-75
2022/08/31 10:48:53;;;;;;;36.08;4.63;;;;;;;36.51;18.76;98789.69;5015335;28;20503;-75
2022/08/31 10:51:22;;;;;;;14.55;3.47;;;;;;;36.86;17.67;98792.91;5032631;28;20068;-75
2022/08/31 10:54:20;;;;;;;13.60;3.80;;;;;;;36.72;17.68;98796.53;5031396;28;20267;-76
2022/08/31 10:56:58;;;;;;;22.98;3.40;;;;;;;36.71;17.33;98796.81;5033417;28;20049;-75
2022/08/31 10:59:57;;;;;;;15.13;3.40;;;;;;;36.54;17.58;98793.84;5035608;28;20390;-74
2022/08/31 11:02:28;;;;;;;15.82;3.42;;;;;;;35.41;18.33;98780.84;5035401;28;20045;-75
2022/08/31 11:05:00;;;;;;;16.65;3.90;;;;;;;35.11;18.99;98780.13;5035367;28;20386;-75
2022/08/31 11:07:34;;;;;;;21.80;4.05;;;;;;;35.21;18.85;98771.69;5018977;28;20045;-75
2022/08/31 11:10:05;;;;;;;31.95;4.03;;;;;;;35.90;18.46;98774.84;5034972;28;20080;-76
2022/08/31 11:12:42;;;;;;;13.75;3.80;;;;;;;37.04;17.79;98766.94;5019018;28;20045;-75
2022/08/31 11:16:04;;;;;;;22.00;3.38;;;;;;;37.72;17.02;98773.53;5018500;28;20512;-75
2022/08/31 11:18:59;;;;;;;18.30;3.67;;;;;;;38.02;16.58;98760.00;4999426;28;20046;-74
2022/08/31 11:21:52;;;;;;;19.08;2.97;;;;;;;37.57;16.77;98763.56;4984944;28;20041;-75
2022/08/31 11:24:32;;;;;;;26.73;3.10;;;;;;;38.62;15.90;98754.75;5036162;28;20056;-75
2022/08/31 11:27:10;;;;;;;14.02;3.33;;;;;;;38.99;15.53;98760.19;5034949;28;20052;-75
2022/08/31 11:29:55;;;;;;;23.85;3.53;;;;;;;38.85;16.25;98765.88;5035004;28;20589;-74
2022/08/31 11:32:33;;;;;;;15.57;3.53;;;;;;;38.29;16.57;98759.84;5034489;28;20136;-76
2022/08/31 11:35:07;;;;;;;23.33;4.25;;;;;;;38.17;16.04;98756.81;5034583;28;20060;-75
2022/08/31 11:37:51;;;;;;;19.98;4.15;;;;;;;38.43;15.88;98758.97;5034492;28;20488;-76
2022/08/31 11:40:42;;;;;;;27.48;4.13;;;;;;;38.69;15.69;98762.69;5018018;28;20045;-76
2022/08/31 11:43:14;;;;;;;15.35;3.33;;;;;;;38.90;15.45;98773.31;5034659;28;20037;-74
2022/08/31 11:45:41;;;;;;;14.90;3.25;;;;;;;39.20;15.36;98755.66;5018213;28;20057;-75
2022/08/31 11:48:47;;;;;;;20.38;3.55;;;;;;;39.01;15.29;98760.69;5034356;28;20041;-75
2022/08/31 11:51:28;;;;;;;20.63;3.90;;;;;;;38.37;16.00;98750.72;5034269;28;20397;-76
2022/08/31 11:53:54;;;;;;;22.83;4.55;;;;;;;38.74;15.70;98748.59;5018230;28;20053;-74
2022/08/31 11:56:35;;;;;;;16.80;3.78;;;;;;;38.97;15.51;98740.13;5034144;28;20049;-75
2022/08/31 11:59:26;;;;;;;19.63;4.30;;;;;;;39.51;15.10;98749.13;5035296;28;20562;-76
2022/08/31 12:01:55;;;;;;;17.80;3.78;;;;;;;39.94;15.07;98739.91;5017891;28;20501;-75
2022/08/31 12:04:40;;;;;;;17.60;3.88;;;;;;;40.65;14.57;98737.44;5017692;28;20143;-75
2022/08/31 12:07:12;;;;;;;24.95;4.22;;;;;;;41.06;14.46;98730.31;5016472;28;20049;-75
2022/08/31 12:09:52;;;;;;;20.98;3.83;;;;;;;40.21;14.93;98744.31;5017636;28;20048;-75